Terminal Aerodrome Forecast
Issued by NWS Charleston, WV

Current Version | Previous Version | Graphics & Text | Print | Product List | Glossary Off
Versions: 1 2 3 4 5 6 7 8 9 10 11 12 13 14 15 16 17 18 19 20 21 22

000
FTUS41 KRLX 282338
TAFPKB
TAF
KPKB 282338Z 2900/2924 VRB03KT P6SM VCTS OVC035CB
     FM290300 VRB03KT P6SM BKN150
     FM290500 00000KT 5SM BR BKN150
     FM290600 00000KT 4SM BR SCT140
     FM290900 00000KT 3SM BR SCT100
     FM291400 00000KT P6SM SCT060
     FM291700 04005KT P6SM BKN035=

USA.gov is the U.S. government's official web portal to all federal, state and local government web resources and services.